createdAt,value
2019-05-29T00:00:36.377Z,9.68
2019-05-29T00:05:48.960Z,8.68
2019-05-29T00:10:52.571Z,8.95
2019-05-29T00:16:01.462Z,9.33
2019-05-29T00:21:27.544Z,8.43
2019-05-29T00:26:31.144Z,9.10
2019-05-29T00:31:39.151Z,10.35
2019-05-29T00:42:35.775Z,10.08
2019-05-29T00:47:51.759Z,8.03
2019-05-29T00:53:02.724Z,9.10
2019-05-29T00:58:12.809Z,8.00
2019-05-29T01:08:57.374Z,10.00
2019-05-29T01:14:19.395Z,7.80
2019-05-29T01:19:32.247Z,11.95
2019-05-29T01:24:43.325Z,10.28
2019-05-29T01:29:50.698Z,9.93
2019-05-29T01:35:02.159Z,9.83
2019-05-29T01:40:20.079Z,13.20
2019-05-29T01:45:29.899Z,11.03
2019-05-29T01:50:40.871Z,9.38
2019-05-29T01:55:54.433Z,10.38
2019-05-29T02:01:02.520Z,9.85
2019-05-29T02:06:24.017Z,14.83
2019-05-29T02:11:35.112Z,10.43
2019-05-29T02:21:52.095Z,12.98
2019-05-29T02:26:59.964Z,13.28
2019-05-29T02:32:23.611Z,12.03
2019-05-29T02:37:35.238Z,13.20
2019-05-29T02:42:50.534Z,12.05
2019-05-29T02:48:01.993Z,11.55
2019-05-29T02:53:09.844Z,13.62
2019-05-29T02:58:22.055Z,11.93
2019-05-29T03:03:39.109Z,11.88
2019-05-29T03:09:07.271Z,10.72
2019-05-29T03:14:04.591Z,11.45
2019-05-29T03:19:25.901Z,9.75
2019-05-29T03:24:48.181Z,9.70
2019-05-29T03:30:30.397Z,10.35
2019-05-29T03:35:17.523Z,14.95
2019-05-29T03:41:05.218Z,12.75
2019-05-29T03:45:53.005Z,13.90
2019-05-29T03:51:04.782Z,12.75
2019-05-29T03:57:49.282Z,11.70
2019-05-29T04:01:31.423Z,12.20
2019-05-29T04:06:47.064Z,12.35
2019-05-29T04:12:04.850Z,14.30
2019-05-29T04:17:02.542Z,13.03
2019-05-29T04:22:25.670Z,12.45
2019-05-29T04:27:24.931Z,12.70
2019-05-29T04:32:57.337Z,17.17
2019-05-29T04:37:57.841Z,13.88
2019-05-29T04:48:38.390Z,17.48
2019-05-29T04:53:43.627Z,14.73
2019-05-29T04:58:48.065Z,11.45
2019-05-29T05:03:52.474Z,11.90
2019-05-29T05:08:56.939Z,14.63
2019-05-29T05:14:01.956Z,13.60
2019-05-29T05:19:06.436Z,12.80
2019-05-29T05:24:30.227Z,13.62
2019-05-29T05:29:34.736Z,12.88
2019-05-29T05:34:39.178Z,11.78
2019-05-29T05:39:43.594Z,12.40
2019-05-29T05:44:47.967Z,9.50
2019-05-29T05:49:52.437Z,13.62
2019-05-29T05:55:16.510Z,12.07
2019-05-29T06:00:35.793Z,8.73
2019-05-29T06:05:40.431Z,10.45
2019-05-29T06:10:44.898Z,10.72
2019-05-29T06:15:49.325Z,13.53
2019-05-29T06:20:53.736Z,10.03
2019-05-29T06:26:00.158Z,8.58
2019-05-29T06:31:04.235Z,9.75
2019-05-29T06:36:08.699Z,8.63
2019-05-29T06:41:13.137Z,11.73
2019-05-29T06:46:17.640Z,8.05
2019-05-29T06:51:22.012Z,6.85
2019-05-29T06:56:26.559Z,9.10
2019-05-29T07:01:30.993Z,12.23
2019-05-29T07:06:36.517Z,10.65
2019-05-29T07:11:41.367Z,12.00
2019-05-29T07:16:55.960Z,11.10
2019-05-29T07:21:53.253Z,7.87
2019-05-29T07:26:57.732Z,10.72
2019-05-29T07:32:02.527Z,11.48
2019-05-29T07:37:07.470Z,10.55
2019-05-29T07:42:12.002Z,11.28
2019-05-29T07:47:16.511Z,12.28
2019-05-29T07:52:20.909Z,10.23
2019-05-29T07:57:25.337Z,12.68
2019-05-29T08:02:29.745Z,11.10
2019-05-29T08:07:34.203Z,8.05
2019-05-29T08:12:42.241Z,9.65
2019-05-29T08:17:46.068Z,10.08
2019-05-29T08:22:51.092Z,8.30
2019-05-29T08:27:55.767Z,7.53
2019-05-29T08:33:00.200Z,8.03
2019-05-29T08:38:04.753Z,9.80
2019-05-29T08:43:09.117Z,8.55
2019-05-29T08:48:13.528Z,7.05
2019-05-29T08:53:18.110Z,8.00
2019-05-29T08:58:22.505Z,6.50
2019-05-29T09:03:27.311Z,7.53
2019-05-29T09:08:31.704Z,9.28
2019-05-29T09:13:36.094Z,6.80
2019-05-29T09:18:40.664Z,8.78
2019-05-29T09:23:46.689Z,7.83
2019-05-29T09:28:51.106Z,8.60
2019-05-29T09:33:55.737Z,5.78
2019-05-29T09:39:00.133Z,9.65
2019-05-29T09:44:04.895Z,9.03
2019-05-29T09:49:09.415Z,7.20
2019-05-29T09:54:13.924Z,11.05
2019-05-29T09:59:18.527Z,7.87
2019-05-29T10:04:22.986Z,7.15
2019-05-29T10:09:27.367Z,8.10
2019-05-29T10:14:31.755Z,8.53
2019-05-29T10:19:57.117Z,10.25
2019-05-29T10:25:01.979Z,7.85
2019-05-29T10:30:08.623Z,5.90
2019-05-29T10:35:13.524Z,7.65
2019-05-29T10:40:18.517Z,6.75
2019-05-29T10:45:23.174Z,8.90
2019-05-29T10:50:27.611Z,8.30
2019-05-29T10:55:31.993Z,6.83
2019-05-29T11:00:38.887Z,6.72
2019-05-29T11:05:42.688Z,7.70
2019-05-29T11:10:47.928Z,7.33
2019-05-29T11:15:52.807Z,7.62
2019-05-29T11:20:57.636Z,7.20
2019-05-29T11:26:02.828Z,6.75
2019-05-29T11:31:07.252Z,7.33
2019-05-29T11:36:13.546Z,7.15
2019-05-29T11:41:25.667Z,6.55
2019-05-29T11:46:24.131Z,6.65
2019-05-29T11:51:28.515Z,7.00
2019-05-29T11:56:32.992Z,8.93
2019-05-29T12:01:52.253Z,9.30
2019-05-29T12:06:57.571Z,9.23
2019-05-29T12:12:02.256Z,5.70
2019-05-29T12:17:06.729Z,7.40
2019-05-29T12:22:11.194Z,6.12
2019-05-29T12:27:15.664Z,8.00
2019-05-29T12:32:20.093Z,7.55
2019-05-29T12:37:24.467Z,6.70
2019-05-29T12:42:29.097Z,7.53
2019-05-29T12:47:33.513Z,7.78
2019-05-29T12:52:37.985Z,8.10
2019-05-29T12:57:42.367Z,6.78
2019-05-29T13:02:46.893Z,7.37
2019-05-29T13:07:51.328Z,7.17
2019-05-29T13:13:02.362Z,6.95
2019-05-29T13:18:07.867Z,7.62
2019-05-29T13:23:08.587Z,7.10
2019-05-29T13:28:13.384Z,8.43
2019-05-29T13:33:17.764Z,9.55
2019-05-29T13:38:22.205Z,10.30
2019-05-29T13:43:26.628Z,9.53
2019-05-29T13:48:31.293Z,8.38
2019-05-29T13:53:35.724Z,9.80
2019-05-29T13:58:40.167Z,10.43
2019-05-29T14:03:44.604Z,10.40
2019-05-29T14:08:49.001Z,11.10
2019-05-29T14:13:53.395Z,9.35
2019-05-29T14:18:57.815Z,11.12
2019-05-29T14:24:08.713Z,9.58
2019-05-29T14:29:10.077Z,9.15
2019-05-29T14:34:14.553Z,8.90
2019-05-29T14:39:19.357Z,9.63
2019-05-29T14:44:23.781Z,8.60
2019-05-29T14:49:28.143Z,9.70
2019-05-29T14:54:41.901Z,9.88
2019-05-29T14:59:38.804Z,11.10
2019-05-29T15:04:43.273Z,9.03
2019-05-29T15:09:47.666Z,9.88
2019-05-29T15:14:52.109Z,9.75
2019-05-29T15:19:56.607Z,9.58
2019-05-29T15:25:11.293Z,9.35
2019-05-29T15:30:10.392Z,9.60
2019-05-29T15:35:19.276Z,14.30
2019-05-29T15:40:21.828Z,9.93
2019-05-29T15:45:26.299Z,9.58
2019-05-29T15:50:30.757Z,10.75
2019-05-29T15:55:35.224Z,9.03
2019-05-29T16:00:39.632Z,11.83
2019-05-29T16:05:44.025Z,11.80
2019-05-29T16:10:49.072Z,13.18
2019-05-29T16:15:53.481Z,12.63
2019-05-29T16:20:57.960Z,13.30
2019-05-29T16:26:02.405Z,13.03
2019-05-29T16:31:06.871Z,13.68
2019-05-29T16:36:12.551Z,14.05
2019-05-29T16:41:17.915Z,13.05
2019-05-29T16:46:24.469Z,15.18
2019-05-29T16:51:28.667Z,11.60
2019-05-29T16:56:33.128Z,16.80
2019-05-29T17:01:37.591Z,16.05
2019-05-29T17:06:42.054Z,14.00
2019-05-29T17:11:49.197Z,12.37
2019-05-29T17:16:53.702Z,13.40
2019-05-29T17:21:58.165Z,12.53
2019-05-29T17:27:02.774Z,12.45
2019-05-29T17:32:07.325Z,14.50
2019-05-29T17:37:11.814Z,12.73
2019-05-29T17:42:16.335Z,12.00
2019-05-29T17:47:21.494Z,13.35
2019-05-29T17:52:26.050Z,14.83
2019-05-29T17:57:30.645Z,11.83
2019-05-29T18:02:50.921Z,12.25
2019-05-29T18:07:41.330Z,12.15
2019-05-29T18:12:45.755Z,11.40
2019-05-29T18:17:50.214Z,11.10
2019-05-29T18:22:54.636Z,12.55
2019-05-29T18:27:59.077Z,12.18
2019-05-29T18:33:03.486Z,13.32
2019-05-29T18:38:07.957Z,12.88
2019-05-29T18:43:12.382Z,11.48
2019-05-29T18:48:16.792Z,12.85
2019-05-29T18:53:22.621Z,13.35
2019-05-29T18:58:28.178Z,13.20
2019-05-29T19:03:32.884Z,15.45
2019-05-29T19:08:37.350Z,16.07
2019-05-29T19:13:41.873Z,13.22
2019-05-29T19:18:46.278Z,16.00
2019-05-29T19:23:50.718Z,16.57
2019-05-29T19:28:55.116Z,15.90
2019-05-29T19:33:59.508Z,19.85
2019-05-29T19:39:05.082Z,17.12
2019-05-29T19:44:09.565Z,17.65
2019-05-29T19:49:13.978Z,17.60
2019-05-29T19:54:18.403Z,15.25
2019-05-29T19:59:22.871Z,18.40
2019-05-29T20:04:28.420Z,18.92
2019-05-29T20:09:59.690Z,19.48
2019-05-29T20:15:13.391Z,19.57
2019-05-29T20:20:38.742Z,20.72
2019-05-29T20:25:44.929Z,17.10
2019-05-29T20:31:16.013Z,17.65
2019-05-29T20:36:16.865Z,18.40
2019-05-29T20:41:33.824Z,19.07
2019-05-29T20:46:48.680Z,18.82
2019-05-29T20:52:14.023Z,18.77
2019-05-29T20:57:27.898Z,15.95
2019-05-29T21:07:56.703Z,15.60
2019-05-29T21:13:12.498Z,18.80
2019-05-29T21:18:36.171Z,17.17
2019-05-29T21:23:38.325Z,17.17
2019-05-29T21:28:50.813Z,17.87
2019-05-29T21:33:56.839Z,21.05
2019-05-29T21:39:11.367Z,19.67
2019-05-29T21:44:27.820Z,17.70
2019-05-29T21:49:41.000Z,20.00
2019-05-29T21:55:57.241Z,19.10
2019-05-29T22:06:27.230Z,22.35
2019-05-29T22:11:54.277Z,14.38
2019-05-29T22:16:53.332Z,18.82
2019-05-29T22:22:08.833Z,17.65
2019-05-29T22:27:22.725Z,18.30
2019-05-29T22:32:39.011Z,18.30
2019-05-29T22:37:42.593Z,20.17
2019-05-29T22:42:58.115Z,17.23
2019-05-29T22:48:11.959Z,16.93
2019-05-29T22:53:21.892Z,18.50
2019-05-29T22:58:44.384Z,17.35
2019-05-29T23:03:43.574Z,18.00
2019-05-29T23:09:12.235Z,18.75
2019-05-29T23:14:31.109Z,18.82
2019-05-29T23:19:42.073Z,21.85
2019-05-29T23:25:18.241Z,23.20
2019-05-29T23:30:08.335Z,23.67
2019-05-29T23:35:17.890Z,29.72
2019-05-29T23:40:24.066Z,23.70
2019-05-29T23:45:37.131Z,31.17
2019-05-29T23:50:49.789Z,27.05
2019-05-29T23:55:59.735Z,27.67
